Time;durP1;ratioP1;P1;durP2;ratioP2;P2;SDS_P1;SDS_P2;PMS_P1;PMS_P2;Temp;Humidity;BMP_temperature;BMP_pressure;BME280_temperature;BME280_humidity;BME280_pressure;Samples;Min_cycle;Max_cycle;Signal;HPM_P1;HPM_P2
2022/03/12 00:01:12;;;;;;;3.60;2.87;;;10.50;37.20;;;;;;5069702;28;20442;-69
2022/03/12 00:03:40;;;;;;;10.33;3.20;;;10.50;36.90;;;;;;5071988;28;20545;-70
2022/03/12 00:06:09;;;;;;;6.13;1.83;;;10.60;37.10;;;;;;5069859;28;20458;-70
2022/03/12 00:08:42;;;;;;;4.83;2.80;;;10.60;36.90;;;;;;5066631;28;20488;-70
2022/03/12 00:11:11;;;;;;;3.33;2.73;;;10.60;36.30;;;;;;5067926;28;22407;-69
2022/03/12 00:13:38;;;;;;;2.73;2.43;;;10.60;36.90;;;;;;5066819;28;21305;-70
2022/03/12 00:16:11;;;;;;;4.40;3.73;;;10.60;36.80;;;;;;5068686;28;20462;-71
2022/03/12 00:18:38;;;;;;;3.83;2.90;;;10.70;36.80;;;;;;5068985;28;20463;-69
2022/03/12 00:21:07;;;;;;;3.40;2.37;;;10.70;36.60;;;;;;5062895;28;20944;-70
2022/03/12 00:23:34;;;;;;;5.80;3.13;;;10.80;36.20;;;;;;5067983;28;20442;-69
2022/03/12 00:26:02;;;;;;;3.13;1.30;;;10.90;36.40;;;;;;5069157;28;20447;-70
2022/03/12 00:28:29;;;;;;;4.50;3.50;;;10.90;36.00;;;;;;5070392;28;21340;-70
2022/03/12 00:30:57;;;;;;;3.33;3.03;;;11.00;36.00;;;;;;5069282;28;20427;-70
2022/03/12 00:33:25;;;;;;;4.80;3.27;;;10.90;35.90;;;;;;5068856;28;20462;-70
2022/03/12 00:35:53;;;;;;;4.97;3.73;;;10.90;36.30;;;;;;5069822;28;20461;-69
2022/03/12 00:38:22;;;;;;;5.20;3.70;;;10.90;36.50;;;;;;5065828;28;20525;-69
2022/03/12 00:40:49;;;;;;;4.07;3.20;;;10.80;36.40;;;;;;5068106;28;20454;-69
2022/03/12 00:43:18;;;;;;;3.73;2.70;;;10.70;36.80;;;;;;5065825;28;20549;-69
2022/03/12 00:45:46;;;;;;;14.63;3.77;;;10.80;36.40;;;;;;5070126;28;20521;-69
2022/03/12 00:48:13;;;;;;;6.73;4.00;;;10.70;36.90;;;;;;5073983;28;21201;-71
2022/03/12 00:50:41;;;;;;;4.87;2.90;;;10.60;37.10;;;;;;5071949;28;20471;-69
2022/03/12 00:53:08;;;;;;;8.20;6.10;;;10.60;36.80;;;;;;5069343;28;20489;-70
2022/03/12 00:55:35;;;;;;;4.20;2.60;;;10.70;36.60;;;;;;5062378;28;20568;-69
2022/03/12 00:58:02;;;;;;;3.80;3.00;;;10.80;37.10;;;;;;5067212;28;20480;-69
2022/03/12 01:00:30;;;;;;;6.33;3.80;;;10.70;37.40;;;;;;5069823;28;20438;-70
2022/03/12 01:02:57;;;;;;;3.70;3.33;;;10.70;37.20;;;;;;5067732;28;20460;-70
2022/03/12 01:05:34;;;;;;;3.27;2.60;;;10.70;37.30;;;;;;5065301;28;20527;-70
2022/03/12 01:08:02;;;;;;;5.40;3.00;;;10.70;37.10;;;;;;5063907;28;20640;-69
2022/03/12 01:10:29;;;;;;;4.10;2.90;;;10.70;36.70;;;;;;5067317;28;20491;-70
2022/03/12 01:12:56;;;;;;;6.20;3.80;;;10.80;36.70;;;;;;5068538;28;20460;-70
2022/03/12 01:15:23;;;;;;;7.43;3.93;;;10.90;36.70;;;;;;5061906;28;20427;-70
2022/03/12 01:17:50;;;;;;;6.40;3.20;;;10.90;36.90;;;;;;5068532;28;20465;-70
2022/03/12 01:20:21;;;;;;;4.40;3.37;;;11.00;36.80;;;;;;5068637;28;20462;-70
2022/03/12 01:22:48;;;;;;;3.53;2.80;;;11.10;37.00;;;;;;5061399;28;20433;-70
2022/03/12 01:25:21;;;;;;;7.03;4.20;;;11.00;37.40;;;;;;5060632;28;20978;-70
2022/03/12 01:27:48;;;;;;;5.93;2.90;;;11.00;36.90;;;;;;5067166;28;20455;-70
2022/03/12 01:30:15;;;;;;;5.20;3.50;;;10.90;36.90;;;;;;5062680;28;20439;-69
2022/03/12 01:32:41;;;;;;;5.43;3.50;;;10.80;37.30;;;;;;5068611;28;20436;-68
2022/03/12 01:35:08;;;;;;;6.57;4.20;;;10.80;37.70;;;;;;5073203;28;20469;-69
2022/03/12 01:37:35;;;;;;;4.80;3.20;;;10.80;37.80;;;;;;5063953;28;20431;-69
2022/03/12 01:40:02;;;;;;;5.50;3.67;;;10.80;37.60;;;;;;5061137;28;21011;-69
2022/03/12 01:42:30;;;;;;;4.83;3.90;;;10.80;37.40;;;;;;5065748;28;20451;-68
2022/03/12 01:44:57;;;;;;;7.00;3.40;;;11.00;38.30;;;;;;5070749;28;20583;-68
2022/03/12 01:47:24;;;;;;;7.27;4.67;;;11.00;38.00;;;;;;5069333;28;20514;-68
2022/03/12 01:49:54;;;;;;;6.30;3.80;;;11.00;38.60;;;;;;5071436;28;21777;-68
2022/03/12 01:52:21;;;;;;;9.70;3.50;;;11.10;38.40;;;;;;5071836;27;20791;-69
2022/03/12 01:54:48;;;;;;;9.43;4.60;;;11.00;38.20;;;;;;5071450;28;20552;-69
2022/03/12 01:57:15;;;;;;;4.73;3.47;;;11.10;38.40;;;;;;5072147;28;20830;-70
2022/03/12 01:59:43;;;;;;;7.13;4.30;;;11.00;38.90;;;;;;5074701;28;20520;-69
2022/03/12 02:02:13;;;;;;;5.43;3.43;;;11.00;39.30;;;;;;5071299;28;20432;-70
2022/03/12 02:04:41;;;;;;;4.63;3.20;;;10.90;38.60;;;;;;5073030;28;20431;-69
2022/03/12 02:07:08;;;;;;;6.03;2.73;;;11.00;39.20;;;;;;5072022;28;20523;-70
2022/03/12 02:09:35;;;;;;;3.00;2.60;;;11.00;39.70;;;;;;5073266;27;21146;-69
2022/03/12 02:12:02;;;;;;;6.53;4.10;;;11.00;39.90;;;;;;5072041;28;21014;-69
2022/03/12 02:14:29;;;;;;;8.80;4.10;;;11.00;38.80;;;;;;5076803;28;20543;-69
2022/03/12 02:17:00;;;;;;;4.33;3.07;;;11.00;38.40;;;;;;5071887;28;20587;-69
2022/03/12 02:19:30;;;;;;;5.93;3.63;;;11.10;39.10;;;;;;5072532;28;20448;-69
2022/03/12 02:21:59;;;;;;;5.97;3.53;;;10.90;39.80;;;;;;5075309;28;20434;-69
2022/03/12 02:24:28;;;;;;;8.60;3.90;;;10.90;39.20;;;;;;5071929;28;20428;-69
2022/03/12 02:26:57;;;;;;;5.87;4.53;;;11.00;39.40;;;;;;5069581;28;20554;-69
2022/03/12 02:29:25;;;;;;;5.37;3.23;;;10.80;38.30;;;;;;5069648;28;20463;-69
2022/03/12 02:31:55;;;;;;;8.10;3.80;;;10.70;38.10;;;;;;5067296;28;20428;-69
2022/03/12 02:34:23;;;;;;;7.43;4.20;;;10.80;38.60;;;;;;5070069;28;20469;-69
2022/03/12 02:36:52;;;;;;;10.40;4.07;;;10.80;38.60;;;;;;5066362;28;20495;-69
2022/03/12 02:39:21;;;;;;;6.00;3.67;;;10.90;39.20;;;;;;5072300;28;20477;-69
2022/03/12 02:41:49;;;;;;;3.83;3.50;;;10.80;39.10;;;;;;5066274;27;20461;-69
2022/03/12 02:44:20;;;;;;;5.73;4.47;;;10.90;38.70;;;;;;5067772;28;20424;-69
2022/03/12 02:47:10;;;;;;;7.73;5.73;;;10.70;38.60;;;;;;5069914;28;20546;-69
2022/03/12 02:49:39;;;;;;;6.60;3.93;;;10.60;39.20;;;;;;5070490;28;20454;-69
2022/03/12 02:52:06;;;;;;;4.00;3.37;;;10.50;39.00;;;;;;5074270;28;20428;-69
2022/03/12 02:54:34;;;;;;;5.73;2.20;;;10.60;39.10;;;;;;5074414;28;20473;-69
2022/03/12 02:57:03;;;;;;;7.97;3.80;;;10.50;38.90;;;;;;5070877;28;20536;-68
2022/03/12 02:59:30;;;;;;;5.80;3.80;;;10.50;39.50;;;;;;5071875;28;20447;-68
2022/03/12 03:02:00;;;;;;;5.93;3.97;;;10.40;39.50;;;;;;5066911;28;20477;-69
2022/03/12 03:04:27;;;;;;;6.60;3.60;;;10.40;39.40;;;;;;5061916;28;21463;-69
2022/03/12 03:06:53;;;;;;;5.13;3.73;;;10.40;39.90;;;;;;5068867;28;20427;-69
2022/03/12 03:09:20;;;;;;;3.87;2.90;;;10.40;39.60;;;;;;5071989;28;20542;-69
2022/03/12 03:11:48;;;;;;;5.87;3.60;;;10.50;40.00;;;;;;5071949;28;21157;-69
2022/03/12 03:14:19;;;;;;;13.10;3.27;;;10.50;40.00;;;;;;5067678;28;20457;-69
2022/03/12 03:16:51;;;;;;;5.80;4.13;;;10.50;39.90;;;;;;5070031;28;20967;-69
2022/03/12 03:19:18;;;;;;;13.17;4.70;;;10.60;40.00;;;;;;5072088;28;20477;-70
2022/03/12 03:21:45;;;;;;;4.47;2.60;;;10.60;39.90;;;;;;5069884;28;20583;-70
2022/03/12 03:24:12;;;;;;;6.87;4.07;;;10.50;40.20;;;;;;5068438;28;20432;-69
2022/03/12 03:26:56;;;;;;;4.30;3.90;;;10.40;40.60;;;;;;5067300;28;20431;-69
2022/03/12 03:29:26;;;;;;;6.80;3.93;;;10.60;40.40;;;;;;5071869;28;20492;-69
2022/03/12 03:31:53;;;;;;;5.20;3.70;;;10.50;40.40;;;;;;5069138;28;20909;-69
2022/03/12 03:34:21;;;;;;;3.93;2.50;;;10.50;40.70;;;;;;5069176;28;21231;-69
2022/03/12 03:36:49;;;;;;;9.20;3.90;;;10.50;40.60;;;;;;5065218;28;20454;-70
2022/03/12 03:39:16;;;;;;;7.60;4.73;;;10.50;41.20;;;;;;5068294;27;22443;-69
2022/03/12 03:41:43;;;;;;;7.57;3.67;;;10.40;41.10;;;;;;5067831;28;21031;-69
2022/03/12 03:44:10;;;;;;;9.80;3.90;;;10.40;41.40;;;;;;5071559;28;20447;-70
2022/03/12 03:46:39;;;;;;;7.10;2.77;;;10.30;41.20;;;;;;5066893;28;20464;-70
2022/03/12 03:49:06;;;;;;;6.20;3.87;;;10.20;41.40;;;;;;5063767;28;21126;-69
2022/03/12 03:51:37;;;;;;;6.40;4.07;;;10.20;41.70;;;;;;5065098;28;21092;-69
2022/03/12 03:54:08;;;;;;;6.60;3.40;;;10.20;42.00;;;;;;5062097;28;20477;-69
2022/03/12 03:56:35;;;;;;;5.90;3.63;;;10.10;41.80;;;;;;5071822;28;20432;-70
2022/03/12 03:59:02;;;;;;;6.40;3.33;;;10.00;42.10;;;;;;5068598;28;20456;-70
2022/03/12 04:01:29;;;;;;;8.53;4.70;;;10.00;42.20;;;;;;5068091;28;21170;-68
2022/03/12 04:03:57;;;;;;;4.73;2.77;;;10.00;42.60;;;;;;5071748;28;20509;-69
2022/03/12 04:06:25;;;;;;;7.70;4.53;;;10.00;42.60;;;;;;5068743;28;20975;-69
2022/03/12 04:08:52;;;;;;;4.50;3.63;;;10.00;43.10;;;;;;5064318;28;20455;-69
2022/03/12 04:11:21;;;;;;;3.30;3.00;;;9.90;43.90;;;;;;5062108;28;22009;-69
2022/03/12 04:13:48;;;;;;;7.00;4.33;;;10.00;43.50;;;;;;5063993;28;20516;-69
2022/03/12 04:16:16;;;;;;;7.43;4.00;;;10.00;43.30;;;;;;5066448;28;20954;-68
2022/03/12 04:18:46;;;;;;;5.93;4.27;;;10.10;43.30;;;;;;5065458;27;20575;-69
2022/03/12 04:21:16;;;;;;;6.43;3.83;;;10.00;43.20;;;;;;5070661;28;20443;-68
2022/03/12 04:23:43;;;;;;;9.60;4.77;;;10.00;43.70;;;;;;5081003;28;20469;-68
2022/03/12 04:26:10;;;;;;;5.80;4.00;;;10.00;44.00;;;;;;5077407;28;20463;-69
2022/03/12 04:28:38;;;;;;;6.10;3.40;;;10.10;43.70;;;;;;5064883;28;20978;-69
2022/03/12 04:31:06;;;;;;;4.00;2.93;;;10.00;43.50;;;;;;5060516;28;20473;-69
2022/03/12 04:33:34;;;;;;;10.47;4.40;;;10.10;43.70;;;;;;5067484;28;20530;-69
2022/03/12 04:36:02;;;;;;;11.63;4.00;;;10.20;43.40;;;;;;5064800;28;20942;-69
2022/03/12 04:38:30;;;;;;;5.53;3.60;;;10.20;43.60;;;;;;5061914;28;21015;-69
2022/03/12 04:40:57;;;;;;;7.40;4.10;;;10.20;44.30;;;;;;5064148;28;20469;-68
2022/03/12 04:43:26;;;;;;;5.33;3.30;;;10.20;44.20;;;;;;5068682;28;20991;-68
2022/03/12 04:45:54;;;;;;;7.10;4.20;;;10.20;44.00;;;;;;5065677;28;20476;-69
2022/03/12 04:48:23;;;;;;;6.27;3.47;;;10.20;43.80;;;;;;5068112;28;20456;-68
2022/03/12 04:50:51;;;;;;;6.30;2.63;;;10.10;44.10;;;;;;5066152;28;20474;-69
2022/03/12 04:53:19;;;;;;;9.83;3.67;;;10.00;44.40;;;;;;5070628;28;20435;-69
2022/03/12 04:55:48;;;;;;;6.23;3.33;;;10.10;44.70;;;;;;5069487;28;20554;-68
2022/03/12 04:58:15;;;;;;;5.97;3.40;;;10.10;45.10;;;;;;5064936;28;21088;-68
2022/03/12 05:00:42;;;;;;;9.47;3.53;;;10.30;44.80;;;;;;5063474;28;22087;-68
2022/03/12 05:03:12;;;;;;;2.83;2.47;;;10.20;45.00;;;;;;5072011;28;20432;-69
2022/03/12 05:05:40;;;;;;;6.03;3.00;;;10.30;44.90;;;;;;5066838;28;20456;-68
2022/03/12 05:08:09;;;;;;;4.87;3.97;;;10.30;44.80;;;;;;5066571;28;25064;-70
2022/03/12 05:10:36;;;;;;;4.37;3.57;;;10.20;45.40;;;;;;5070318;28;20485;-70
2022/03/12 05:13:04;;;;;;;5.63;4.10;;;10.20;45.60;;;;;;5067934;28;20465;-70
2022/03/12 05:15:37;;;;;;;4.83;4.23;;;10.20;45.60;;;;;;5073447;28;20436;-69
2022/03/12 05:18:06;;;;;;;5.93;3.20;;;10.20;45.80;;;;;;5064050;28;20486;-68
2022/03/12 05:20:35;;;;;;;5.00;4.50;;;10.10;46.00;;;;;;5067429;28;21036;-69
2022/03/12 05:23:02;;;;;;;6.47;3.70;;;10.00;46.20;;;;;;5072107;28;20432;-69
2022/03/12 05:25:31;;;;;;;5.73;3.43;;;10.20;46.50;;;;;;5070231;28;20453;-70
2022/03/12 05:27:57;;;;;;;6.03;3.33;;;10.10;46.30;;;;;;5070865;28;20455;-70
2022/03/12 05:30:27;;;;;;;6.53;3.53;;;10.10;46.50;;;;;;5070845;28;20485;-70
2022/03/12 05:32:54;;;;;;;6.07;5.23;;;10.10;46.80;;;;;;5072961;28;20431;-69
2022/03/12 05:35:24;;;;;;;6.33;3.60;;;10.10;47.30;;;;;;5074431;28;20530;-70
2022/03/12 05:37:53;;;;;;;5.90;4.13;;;10.10;47.50;;;;;;5075720;28;20477;-69
2022/03/12 05:40:21;;;;;;;4.00;3.63;;;10.10;47.50;;;;;;5074064;28;20432;-69
2022/03/12 05:42:48;;;;;;;11.83;4.70;;;10.10;47.60;;;;;;5077110;28;20461;-70
2022/03/12 05:45:19;;;;;;;5.80;3.50;;;10.20;47.70;;;;;;5076341;28;21174;-69
2022/03/12 05:47:47;;;;;;;4.90;3.90;;;10.10;47.90;;;;;;5073605;28;20481;-67
2022/03/12 05:50:14;;;;;;;7.23;4.07;;;10.20;48.00;;;;;;5075721;28;20477;-70
2022/03/12 05:52:48;;;;;;;7.43;4.63;;;10.10;48.40;;;;;;5068501;28;20457;-69
2022/03/12 05:55:16;;;;;;;5.83;3.50;;;10.20;48.50;;;;;;5075723;28;20447;-68
2022/03/12 05:57:44;;;;;;;8.83;4.97;;;10.20;48.50;;;;;;5075357;28;20558;-69
2022/03/12 06:00:11;;;;;;;6.60;3.30;;;10.30;48.80;;;;;;5073151;28;20438;-70
2022/03/12 06:02:42;;;;;;;6.40;3.47;;;10.30;48.80;;;;;;5072371;28;23111;-70
2022/03/12 06:05:14;;;;;;;9.23;3.93;;;10.20;49.00;;;;;;5069957;28;20443;-69
2022/03/12 06:07:45;;;;;;;6.17;3.30;;;10.10;49.50;;;;;;5076210;27;20483;-69
2022/03/12 06:10:12;;;;;;;4.57;3.07;;;10.10;49.50;;;;;;5069312;28;20477;-70
2022/03/12 06:12:43;;;;;;;3.37;2.50;;;10.10;49.80;;;;;;5070669;28;20575;-70
2022/03/12 06:15:11;;;;;;;4.90;3.53;;;10.00;50.20;;;;;;5071261;28;20998;-70
2022/03/12 06:17:39;;;;;;;7.83;4.10;;;10.00;50.80;;;;;;5069922;27;20521;-71
2022/03/12 06:20:07;;;;;;;4.73;3.80;;;10.00;50.90;;;;;;5074140;27;20428;-70
2022/03/12 06:22:35;;;;;;;7.97;3.87;;;9.90;51.90;;;;;;5059899;28;20588;-70
2022/03/12 06:25:02;;;;;;;7.00;5.37;;;10.00;51.60;;;;;;5064732;27;20480;-70
2022/03/12 06:27:29;;;;;;;6.40;3.37;;;9.90;52.60;;;;;;5060894;28;21071;-70
2022/03/12 06:29:56;;;;;;;6.50;3.90;;;9.90;52.90;;;;;;5072796;27;20455;-69
2022/03/12 06:32:23;;;;;;;7.13;3.17;;;9.90;53.50;;;;;;5080494;28;20428;-69
2022/03/12 06:34:50;;;;;;;14.63;5.17;;;10.00;52.90;;;;;;5075252;28;20439;-68
2022/03/12 06:37:17;;;;;;;2.73;2.50;;;9.90;54.00;;;;;;5069684;28;20432;-68
2022/03/12 06:39:45;;;;;;;4.27;3.73;;;10.00;53.70;;;;;;5067150;28;20446;-69
2022/03/12 06:42:12;;;;;;;7.17;4.43;;;10.00;54.40;;;;;;5074397;28;20592;-69
2022/03/12 06:44:38;;;;;;;5.77;4.10;;;10.00;54.80;;;;;;5076869;28;20464;-69
2022/03/12 06:47:08;;;;;;;7.83;4.80;;;9.90;56.60;;;;;;5070504;27;21571;-69
2022/03/12 06:49:35;;;;;;;7.50;4.63;;;10.10;56.20;;;;;;5091783;28;20610;-68
2022/03/12 06:52:02;;;;;;;3.90;3.00;;;10.10;56.90;;;;;;5088756;28;20454;-69
2022/03/12 06:54:29;;;;;;;5.90;3.70;;;10.20;57.30;;;;;;5086810;28;20436;-69
2022/03/12 06:56:57;;;;;;;5.43;4.90;;;10.30;57.60;;;;;;5074063;28;20593;-70
2022/03/12 06:59:24;;;;;;;6.70;3.63;;;10.40;57.70;;;;;;5074296;28;20574;-67
2022/03/12 07:01:51;;;;;;;9.50;4.10;;;10.50;57.70;;;;;;5074704;28;20428;-70
2022/03/12 07:04:18;;;;;;;7.40;3.43;;;10.60;58.20;;;;;;5074479;28;20516;-69
2022/03/12 07:06:45;;;;;;;4.30;2.70;;;10.50;58.50;;;;;;5066648;28;20458;-69
2022/03/12 07:09:12;;;;;;;6.50;4.50;;;10.60;59.30;;;;;;5070832;28;20460;-69
2022/03/12 07:11:39;;;;;;;6.67;4.23;;;10.70;59.60;;;;;;5073786;28;20456;-69
2022/03/12 07:14:07;;;;;;;7.30;4.57;;;10.70;60.00;;;;;;5068990;28;20548;-69
2022/03/12 07:16:34;;;;;;;5.77;3.90;;;10.90;60.10;;;;;;5073241;28;22666;-69
2022/03/12 07:19:01;;;;;;;7.90;3.60;;;11.00;60.40;;;;;;5072556;28;20456;-69
2022/03/12 07:21:28;;;;;;;12.20;4.07;;;11.10;61.20;;;;;;5072014;28;20432;-69
2022/03/12 07:23:55;;;;;;;6.90;3.57;;;11.40;60.60;;;;;;5065368;28;20902;-69
2022/03/12 07:26:22;;;;;;;3.93;3.00;;;11.70;60.00;;;;;;5068984;28;20470;-69
2022/03/12 07:28:49;;;;;;;5.03;3.33;;;11.60;60.10;;;;;;5071548;28;21670;-69
2022/03/12 07:31:22;;;;;;;6.87;4.07;;;11.70;61.50;;;;;;5072051;28;20579;-69
2022/03/12 07:33:48;;;;;;;4.10;3.60;;;11.90;60.50;;;;;;5068892;28;20515;-69
2022/03/12 07:36:15;;;;;;;5.07;3.67;;;11.70;61.40;;;;;;5072396;28;22356;-69
2022/03/12 07:38:42;;;;;;;4.10;3.10;;;11.60;62.50;;;;;;5070952;28;20561;-69
2022/03/12 07:41:10;;;;;;;5.70;3.80;;;11.60;63.00;;;;;;5071739;28;20465;-69
2022/03/12 07:43:36;;;;;;;4.07;3.17;;;11.70;63.50;;;;;;5054276;28;20465;-70
2022/03/12 07:46:04;;;;;;;8.00;3.43;;;11.90;64.00;;;;;;5056013;28;20492;-70
2022/03/12 07:48:32;;;;;;;6.73;3.77;;;11.90;63.80;;;;;;5053729;28;20456;-70
2022/03/12 07:51:01;;;;;;;4.07;2.33;;;11.90;65.30;;;;;;5059805;28;20802;-70
2022/03/12 07:53:28;;;;;;;5.27;3.80;;;12.20;65.10;;;;;;5064368;28;21226;-69
2022/03/12 07:55:54;;;;;;;5.03;3.67;;;12.30;65.40;;;;;;5064048;28;20453;-69
2022/03/12 07:58:22;;;;;;;5.80;3.70;;;12.10;65.80;;;;;;5068452;28;20542;-69
2022/03/12 08:00:50;;;;;;;5.17;3.40;;;12.10;66.70;;;;;;5071742;28;20999;-68
2022/03/12 08:03:18;;;;;;;10.63;3.70;;;12.20;67.30;;;;;;5070484;28;20466;-70
2022/03/12 08:05:46;;;;;;;8.60;3.33;;;12.20;68.10;;;;;;5066219;28;22547;-70
2022/03/12 08:08:13;;;;;;;4.47;3.40;;;12.40;67.80;;;;;;5066490;28;20477;-70
2022/03/12 08:13:21;;;;;;;7.90;3.80;;;13.50;66.80;;;;;;5075289;28;20453;-70
2022/03/12 08:15:48;;;;;;;4.67;2.97;;;13.70;66.40;;;;;;5074714;28;20463;-69
2022/03/12 08:18:16;;;;;;;5.97;3.33;;;14.20;66.10;;;;;;5074891;28;21468;-70
2022/03/12 08:20:44;;;;;;;4.40;3.77;;;14.00;66.10;;;;;;5074314;28;21012;-70
2022/03/12 08:23:13;;;;;;;7.33;4.70;;;13.80;66.80;;;;;;5071984;28;21114;-70
2022/03/12 08:25:39;;;;;;;3.37;2.70;;;13.80;67.50;;;;;;5072523;28;20453;-69
2022/03/12 08:28:06;;;;;;;5.17;3.43;;;14.10;67.20;;;;;;5075300;28;20476;-70
2022/03/12 08:30:33;;;;;;;5.87;3.50;;;14.10;67.30;;;;;;5074655;28;20549;-69
2022/03/12 08:33:00;;;;;;;7.87;5.20;;;14.00;67.00;;;;;;5072517;28;21168;-69
2022/03/12 08:35:27;;;;;;;3.70;2.73;;;14.20;68.70;;;;;;5074924;28;20569;-70
2022/03/12 08:37:54;;;;;;;5.43;2.80;;;14.90;67.00;;;;;;5075762;28;20483;-70
2022/03/12 08:40:22;;;;;;;5.13;3.20;;;15.40;65.10;;;;;;5077650;28;20462;-69
2022/03/12 08:42:49;;;;;;;5.80;4.10;;;15.80;64.10;;;;;;5077403;28;21013;-70
2022/03/12 08:45:17;;;;;;;7.77;4.97;;;16.90;62.70;;;;;;5071120;27;20464;-69
2022/03/12 08:47:43;;;;;;;7.37;4.30;;;17.20;60.30;;;;;;5073841;28;20472;-71
2022/03/12 08:50:11;;;;;;;5.53;3.90;;;17.30;59.80;;;;;;5075418;28;20491;-70
2022/03/12 08:52:38;;;;;;;5.40;3.60;;;17.70;59.70;;;;;;5077461;28;20545;-70
2022/03/12 08:55:06;;;;;;;5.93;3.83;;;18.10;58.50;;;;;;5075107;28;20764;-70
2022/03/12 08:57:34;;;;;;;6.60;3.73;;;17.70;59.30;;;;;;5071859;28;20461;-71
2022/03/12 09:00:05;;;;;;;5.77;4.20;;;17.90;58.90;;;;;;5073023;28;20469;-70
2022/03/12 09:02:32;;;;;;;7.33;4.30;;;18.30;58.10;;;;;;5071536;28;20498;-69
2022/03/12 09:04:59;;;;;;;4.87;4.00;;;18.60;57.60;;;;;;5072397;28;20570;-70
2022/03/12 09:07:26;;;;;;;5.20;4.10;;;19.10;56.80;;;;;;5072782;28;21235;-70
2022/03/12 09:09:54;;;;;;;4.53;3.30;;;19.30;55.80;;;;;;5072920;28;20491;-70
2022/03/12 09:12:21;;;;;;;3.00;2.60;;;19.70;55.20;;;;;;5074700;28;20470;-70
2022/03/12 09:14:50;;;;;;;4.90;3.50;;;19.40;55.00;;;;;;5076951;28;20489;-69
2022/03/12 09:17:16;;;;;;;5.00;3.70;;;19.00;55.70;;;;;;5074682;28;20489;-69
2022/03/12 09:19:43;;;;;;;9.10;3.80;;;19.30;56.10;;;;;;5073291;28;20476;-69
2022/03/12 09:22:10;;;;;;;4.70;2.10;;;20.50;54.70;;;;;;5073174;28;20971;-70
2022/03/12 09:24:38;;;;;;;6.33;3.93;;;21.00;53.70;;;;;;5075222;28;20473;-70
2022/03/12 09:27:05;;;;;;;2.30;2.10;;;19.70;55.00;;;;;;5069890;28;20970;-70
2022/03/12 09:29:32;;;;;;;3.40;2.57;;;19.30;55.90;;;;;;5073172;28;20987;-70
2022/03/12 09:32:01;;;;;;;4.97;4.07;;;19.20;56.70;;;;;;5072829;28;20500;-70
2022/03/12 09:34:27;;;;;;;5.83;4.13;;;19.50;56.60;;;;;;5072308;28;20457;-70
2022/03/12 09:36:54;;;;;;;5.57;3.53;;;19.80;56.80;;;;;;5071558;28;20457;-70
2022/03/12 09:39:21;;;;;;;4.20;2.50;;;19.80;56.60;;;;;;5073731;28;20496;-70
2022/03/12 09:41:48;;;;;;;7.07;4.53;;;19.90;56.20;;;;;;5072699;28;20585;-70
2022/03/12 09:44:14;;;;;;;4.50;3.67;;;19.70;56.40;;;;;;5067986;28;20454;-71
2022/03/12 09:46:41;;;;;;;6.40;3.90;;;20.70;55.90;;;;;;5068363;28;20458;-70
2022/03/12 09:49:11;;;;;;;5.87;3.80;;;21.50;54.10;;;;;;5069032;28;20477;-70
2022/03/12 09:51:38;;;;;;;6.60;3.90;;;21.80;53.20;;;;;;5075096;28;20581;-69
2022/03/12 09:54:05;;;;;;;4.43;3.60;;;21.40;53.30;;;;;;5073890;28;20464;-70
2022/03/12 09:56:31;;;;;;;9.70;4.67;;;21.20;53.10;;;;;;5070072;28;20944;-69
2022/03/12 09:58:58;;;;;;;6.10;4.27;;;20.70;53.80;;;;;;5067982;28;20489;-70
2022/03/12 10:01:25;;;;;;;5.93;4.47;;;20.40;54.10;;;;;;5068879;28;20538;-70
2022/03/12 10:03:52;;;;;;;10.73;4.27;;;20.70;54.00;;;;;;5070561;28;20461;-70
2022/03/12 10:06:20;;;;;;;5.77;3.20;;;21.00;54.80;;;;;;5072345;28;20795;-69
2022/03/12 10:08:47;;;;;;;9.20;3.67;;;21.40;53.10;;;;;;5071049;28;20547;-69
2022/03/12 10:11:14;;;;;;;3.90;2.93;;;21.00;53.50;;;;;;5069250;28;20491;-70
2022/03/12 10:13:41;;;;;;;5.20;4.03;;;21.10;53.50;;;;;;5072962;28;20950;-71
2022/03/12 10:16:09;;;;;;;6.10;4.10;;;21.30;53.40;;;;;;5075465;28;20453;-69
2022/03/12 10:18:36;;;;;;;3.30;2.70;;;21.40;53.80;;;;;;5078702;28;20495;-69
2022/03/12 10:21:03;;;;;;;3.90;3.50;;;21.10;52.60;;;;;;5075313;28;20582;-69
2022/03/12 10:23:31;;;;;;;4.93;3.10;;;20.30;53.60;;;;;;5077357;28;20453;-69
2022/03/12 10:25:58;;;;;;;5.17;3.57;;;19.90;53.80;;;;;;5070792;27;20465;-69
2022/03/12 10:28:25;;;;;;;5.07;4.30;;;20.30;53.70;;;;;;5076852;28;20489;-69
2022/03/12 10:30:53;;;;;;;5.93;4.00;;;19.70;54.10;;;;;;5072248;28;20542;-70
2022/03/12 10:33:25;;;;;;;8.30;3.40;;;20.80;54.90;;;;;;5081807;28;20853;-69
2022/03/12 10:35:53;;;;;;;5.90;4.90;;;21.70;52.30;;;;;;5074665;28;20972;-69
2022/03/12 10:38:22;;;;;;;7.47;4.77;;;21.90;52.00;;;;;;5072807;28;20541;-69
2022/03/12 10:40:50;;;;;;;7.70;4.80;;;21.30;52.60;;;;;;5081322;27;20461;-69
2022/03/12 10:43:17;;;;;;;4.40;2.90;;;21.00;52.80;;;;;;5087988;27;20465;-69
2022/03/12 10:45:46;;;;;;;7.53;4.00;;;20.70;53.00;;;;;;5089338;28;20457;-69
2022/03/12 10:48:17;;;;;;;6.50;3.70;;;21.10;53.40;;;;;;5087094;28;20961;-69
2022/03/12 10:50:45;;;;;;;6.70;4.60;;;21.40;53.60;;;;;;5085299;27;20487;-69
2022/03/12 10:53:14;;;;;;;5.47;3.40;;;22.20;53.10;;;;;;5090249;28;20593;-69
2022/03/12 10:55:42;;;;;;;8.50;4.30;;;22.40;51.50;;;;;;5089349;27;20942;-69
2022/03/12 10:58:13;;;;;;;8.30;4.33;;;22.50;51.70;;;;;;5085735;28;20473;-69
2022/03/12 11:00:41;;;;;;;4.40;3.10;;;22.40;51.50;;;;;;5089075;28;20464;-69
2022/03/12 11:03:12;;;;;;;6.10;4.00;;;22.10;51.50;;;;;;5084187;28;20457;-69
2022/03/12 11:05:42;;;;;;;5.73;3.70;;;22.10;52.00;;;;;;5082283;28;20453;-69
2022/03/12 11:08:17;;;;;;;5.37;4.00;;;23.30;50.60;;;;;;5078455;28;20484;-69
2022/03/12 11:10:46;;;;;;;3.40;3.10;;;23.40;50.20;;;;;;5075443;28;20464;-69
2022/03/12 11:13:41;;;;;;;6.87;3.97;;;23.20;50.30;;;;;;5074676;28;20575;-70
2022/03/12 11:16:19;;;;;;;7.43;5.13;;;23.70;50.10;;;;;;5083059;28;20453;-69
2022/03/12 11:19:01;;;;;;;4.30;3.33;;;23.00;50.10;;;;;;5068996;28;20488;-69
2022/03/12 11:21:30;;;;;;;5.80;4.40;;;24.00;49.20;;;;;;5072333;27;20545;-69
2022/03/12 11:23:59;;;;;;;8.17;4.30;;;24.70;49.50;;;;;;5081034;28;20552;-69
2022/03/12 11:26:28;;;;;;;4.30;3.10;;;24.90;47.90;;;;;;5074754;28;20461;-71
2022/03/12 11:28:58;;;;;;;4.80;4.20;;;24.50;48.00;;;;;;5077461;28;20483;-69
2022/03/12 11:31:57;;;;;;;5.70;4.23;;;23.70;48.70;;;;;;5074247;27;21028;-70
2022/03/12 11:34:26;;;;;;;5.30;3.73;;;23.80;48.50;;;;;;5044003;28;20458;-70
2022/03/12 11:37:06;;;;;;;7.17;5.20;;;24.50;48.50;;;;;;5069979;28;20458;-70
2022/03/12 11:39:34;;;;;;;5.47;4.00;;;24.10;48.50;;;;;;5086485;28;21499;-69
2022/03/12 11:42:03;;;;;;;6.63;4.80;;;24.20;48.00;;;;;;5085640;27;20456;-69
2022/03/12 11:44:33;;;;;;;8.33;4.47;;;24.10;48.30;;;;;;5089299;28;20463;-70
2022/03/12 11:46:59;;;;;;;6.73;2.80;;;23.90;48.90;;;;;;5076392;28;20464;-70
2022/03/12 11:49:27;;;;;;;4.30;3.33;;;24.00;48.00;;;;;;5091226;28;20468;-70
2022/03/12 11:51:56;;;;;;;6.63;3.93;;;23.40;49.10;;;;;;5081918;28;20477;-70
2022/03/12 11:54:23;;;;;;;4.10;3.27;;;24.20;48.90;;;;;;5079779;28;20465;-70
2022/03/12 11:56:51;;;;;;;4.90;4.10;;;24.90;48.00;;;;;;5080322;28;20542;-70
2022/03/12 11:59:18;;;;;;;5.40;2.97;;;24.10;48.30;;;;;;5079273;28;20492;-70
2022/03/12 12:02:00;;;;;;;5.80;3.63;;;23.80;48.90;;;;;;5078014;28;20453;-70
2022/03/12 12:04:29;;;;;;;4.67;3.10;;;23.00;49.10;;;;;;5077045;28;20461;-70
2022/03/12 12:06:57;;;;;;;4.10;3.13;;;22.80;50.20;;;;;;5079076;28;20466;-69
2022/03/12 12:09:23;;;;;;;7.27;4.70;;;23.50;49.50;;;;;;5076443;28;20477;-70
2022/03/12 12:11:50;;;;;;;5.63;3.20;;;24.00;49.10;;;;;;5080708;28;20566;-70
2022/03/12 12:14:19;;;;;;;4.90;4.30;;;24.30;48.80;;;;;;5079924;28;20579;-70
2022/03/12 12:16:48;;;;;;;6.20;3.97;;;23.90;49.20;;;;;;5075645;28;20936;-69
2022/03/12 12:19:15;;;;;;;5.23;3.70;;;24.30;48.60;;;;;;5085172;28;20505;-69
2022/03/12 12:21:42;;;;;;;5.10;3.30;;;24.20;48.30;;;;;;5091671;28;20534;-70
2022/03/12 12:24:27;;;;;;;6.43;3.93;;;24.10;48.00;;;;;;5073769;28;20461;-70
2022/03/12 12:27:02;;;;;;;4.10;3.50;;;23.50;48.60;;;;;;5074665;28;20824;-70
2022/03/12 12:29:46;;;;;;;7.03;5.27;;;23.00;48.90;;;;;;5076894;28;20468;-69
2022/03/12 12:32:17;;;;;;;4.20;3.20;;;21.90;49.60;;;;;;5075585;28;20497;-70
2022/03/12 12:35:14;;;;;;;6.87;5.17;;;21.50;50.60;;;;;;5063891;28;20546;-68
2022/03/12 12:37:43;;;;;;;5.80;3.67;;;21.60;50.90;;;;;;5068523;28;20476;-69
2022/03/12 12:40:17;;;;;;;5.23;3.73;;;21.90;50.60;;;;;;5069547;28;20566;-70
2022/03/12 12:42:45;;;;;;;5.60;4.60;;;21.20;50.80;;;;;;5068249;28;20964;-70
2022/03/12 12:45:15;;;;;;;5.73;4.00;;;21.50;51.00;;;;;;5062020;28;20494;-70
2022/03/12 12:47:44;;;;;;;4.97;3.73;;;21.80;51.10;;;;;;5068506;28;20500;-70
2022/03/12 12:50:20;;;;;;;6.60;4.17;;;21.90;50.70;;;;;;5070237;28;20453;-70
2022/03/12 12:53:16;;;;;;;4.97;3.80;;;22.20;51.10;;;;;;5060317;28;20497;-71
2022/03/12 12:55:44;;;;;;;6.87;4.63;;;22.00;50.00;;;;;;5045507;28;20853;-69